sensor_id;sensor_type;location;lat;lon;timestamp;P1;durP1;ratioP1;P2;durP2;ratioP2
2011;SDS011;1009;51.436;6.972;2023-07-31T00:00:36;8.17;;;3.97;;
2011;SDS011;1009;51.436;6.972;2023-07-31T00:03:03;12.60;;;3.73;;
2011;SDS011;1009;51.436;6.972;2023-07-31T00:05:30;5.30;;;3.20;;
2011;SDS011;1009;51.436;6.972;2023-07-31T00:07:58;8.50;;;4.10;;
2011;SDS011;1009;51.436;6.972;2023-07-31T00:10:25;6.70;;;3.43;;
2011;SDS011;1009;51.436;6.972;2023-07-31T00:12:51;7.20;;;3.30;;
2011;SDS011;1009;51.436;6.972;2023-07-31T00:15:18;7.40;;;3.27;;
2011;SDS011;1009;51.436;6.972;2023-07-31T00:17:45;11.00;;;4.00;;
2011;SDS011;1009;51.436;6.972;2023-07-31T00:20:12;5.60;;;3.67;;
2011;SDS011;1009;51.436;6.972;2023-07-31T00:22:39;14.60;;;4.00;;
2011;SDS011;1009;51.436;6.972;2023-07-31T00:25:07;6.20;;;3.30;;
2011;SDS011;1009;51.436;6.972;2023-07-31T00:27:34;6.80;;;3.60;;
2011;SDS011;1009;51.436;6.972;2023-07-31T00:30:01;7.07;;;3.93;;
2011;SDS011;1009;51.436;6.972;2023-07-31T00:32:28;9.23;;;3.90;;
2011;SDS011;1009;51.436;6.972;2023-07-31T00:34:55;10.47;;;4.17;;
2011;SDS011;1009;51.436;6.972;2023-07-31T00:37:22;7.93;;;3.70;;
2011;SDS011;1009;51.436;6.972;2023-07-31T00:39:49;11.17;;;3.60;;
2011;SDS011;1009;51.436;6.972;2023-07-31T00:42:17;6.37;;;3.27;;
2011;SDS011;1009;51.436;6.972;2023-07-31T00:44:44;9.80;;;3.40;;
2011;SDS011;1009;51.436;6.972;2023-07-31T00:47:10;9.67;;;3.90;;
2011;SDS011;1009;51.436;6.972;2023-07-31T00:49:37;8.73;;;4.13;;
2011;SDS011;1009;51.436;6.972;2023-07-31T00:52:04;10.20;;;3.37;;
2011;SDS011;1009;51.436;6.972;2023-07-31T00:54:32;6.40;;;3.40;;
2011;SDS011;1009;51.436;6.972;2023-07-31T00:56:59;10.03;;;3.40;;
2011;SDS011;1009;51.436;6.972;2023-07-31T00:59:27;9.93;;;3.10;;
2011;SDS011;1009;51.436;6.972;2023-07-31T01:01:54;12.90;;;3.37;;
2011;SDS011;1009;51.436;6.972;2023-07-31T01:04:21;11.80;;;3.60;;
2011;SDS011;1009;51.436;6.972;2023-07-31T01:06:51;6.20;;;3.17;;
2011;SDS011;1009;51.436;6.972;2023-07-31T01:09:22;5.47;;;2.90;;
2011;SDS011;1009;51.436;6.972;2023-07-31T01:11:56;13.77;;;4.00;;
2011;SDS011;1009;51.436;6.972;2023-07-31T01:14:27;6.83;;;3.03;;
2011;SDS011;1009;51.436;6.972;2023-07-31T01:16:54;8.20;;;3.80;;
2011;SDS011;1009;51.436;6.972;2023-07-31T01:19:21;10.23;;;3.90;;
2011;SDS011;1009;51.436;6.972;2023-07-31T01:21:56;15.17;;;4.23;;
2011;SDS011;1009;51.436;6.972;2023-07-31T01:24:36;9.93;;;3.50;;
2011;SDS011;1009;51.436;6.972;2023-07-31T01:27:14;13.07;;;4.17;;
2011;SDS011;1009;51.436;6.972;2023-07-31T01:29:48;10.93;;;3.57;;
2011;SDS011;1009;51.436;6.972;2023-07-31T01:32:22;9.43;;;3.40;;
2011;SDS011;1009;51.436;6.972;2023-07-31T01:34:50;9.70;;;4.20;;
2011;SDS011;1009;51.436;6.972;2023-07-31T01:37:18;6.70;;;3.53;;
2011;SDS011;1009;51.436;6.972;2023-07-31T01:39:45;9.83;;;3.10;;
2011;SDS011;1009;51.436;6.972;2023-07-31T01:42:13;11.03;;;3.93;;
2011;SDS011;1009;51.436;6.972;2023-07-31T01:44:40;10.37;;;4.43;;
2011;SDS011;1009;51.436;6.972;2023-07-31T01:47:06;11.50;;;3.50;;
2011;SDS011;1009;51.436;6.972;2023-07-31T01:49:33;7.60;;;3.37;;
2011;SDS011;1009;51.436;6.972;2023-07-31T01:52:00;10.70;;;4.13;;
2011;SDS011;1009;51.436;6.972;2023-07-31T01:54:27;7.13;;;2.77;;
2011;SDS011;1009;51.436;6.972;2023-07-31T01:56:53;10.33;;;3.77;;
2011;SDS011;1009;51.436;6.972;2023-07-31T01:59:22;7.03;;;3.57;;
2011;SDS011;1009;51.436;6.972;2023-07-31T02:01:48;13.27;;;3.70;;
2011;SDS011;1009;51.436;6.972;2023-07-31T02:04:15;9.13;;;4.00;;
2011;SDS011;1009;51.436;6.972;2023-07-31T02:06:43;17.87;;;4.10;;
2011;SDS011;1009;51.436;6.972;2023-07-31T02:09:10;9.90;;;3.50;;
2011;SDS011;1009;51.436;6.972;2023-07-31T02:11:36;9.00;;;3.53;;
2011;SDS011;1009;51.436;6.972;2023-07-31T02:14:03;9.83;;;3.67;;
2011;SDS011;1009;51.436;6.972;2023-07-31T02:16:31;3.27;;;2.67;;
2011;SDS011;1009;51.436;6.972;2023-07-31T02:18:58;10.07;;;3.10;;
2011;SDS011;1009;51.436;6.972;2023-07-31T02:21:24;12.33;;;3.10;;
2011;SDS011;1009;51.436;6.972;2023-07-31T02:23:51;8.90;;;3.83;;
2011;SDS011;1009;51.436;6.972;2023-07-31T02:26:18;10.57;;;3.30;;
2011;SDS011;1009;51.436;6.972;2023-07-31T02:28:45;10.53;;;4.10;;
2011;SDS011;1009;51.436;6.972;2023-07-31T02:31:11;12.83;;;6.03;;
2011;SDS011;1009;51.436;6.972;2023-07-31T02:33:40;7.97;;;3.60;;
2011;SDS011;1009;51.436;6.972;2023-07-31T02:36:07;7.00;;;3.50;;
2011;SDS011;1009;51.436;6.972;2023-07-31T02:38:33;9.87;;;3.40;;
2011;SDS011;1009;51.436;6.972;2023-07-31T02:41:00;13.50;;;4.30;;
2011;SDS011;1009;51.436;6.972;2023-07-31T02:43:27;17.40;;;4.77;;
2011;SDS011;1009;51.436;6.972;2023-07-31T02:45:53;9.90;;;3.67;;
2011;SDS011;1009;51.436;6.972;2023-07-31T02:48:20;13.63;;;3.97;;
2011;SDS011;1009;51.436;6.972;2023-07-31T02:50:48;6.50;;;3.50;;
2011;SDS011;1009;51.436;6.972;2023-07-31T02:53:15;10.20;;;3.60;;
2011;SDS011;1009;51.436;6.972;2023-07-31T02:55:42;13.80;;;4.20;;
2011;SDS011;1009;51.436;6.972;2023-07-31T02:58:08;11.40;;;3.67;;
2011;SDS011;1009;51.436;6.972;2023-07-31T03:00:35;6.73;;;3.10;;
2011;SDS011;1009;51.436;6.972;2023-07-31T03:03:02;8.80;;;3.50;;
2011;SDS011;1009;51.436;6.972;2023-07-31T03:05:28;9.73;;;3.43;;
2011;SDS011;1009;51.436;6.972;2023-07-31T03:07:57;6.93;;;2.97;;
2011;SDS011;1009;51.436;6.972;2023-07-31T03:10:23;9.80;;;3.77;;
2011;SDS011;1009;51.436;6.972;2023-07-31T03:12:50;12.23;;;4.20;;
2011;SDS011;1009;51.436;6.972;2023-07-31T03:15:17;10.03;;;4.73;;
2011;SDS011;1009;51.436;6.972;2023-07-31T03:17:43;12.57;;;4.27;;
2011;SDS011;1009;51.436;6.972;2023-07-31T03:20:10;8.70;;;3.60;;
2011;SDS011;1009;51.436;6.972;2023-07-31T03:22:37;10.87;;;3.70;;
2011;SDS011;1009;51.436;6.972;2023-07-31T03:25:06;9.23;;;3.63;;
2011;SDS011;1009;51.436;6.972;2023-07-31T03:27:35;11.37;;;3.67;;
2011;SDS011;1009;51.436;6.972;2023-07-31T03:30:02;13.40;;;3.87;;
2011;SDS011;1009;51.436;6.972;2023-07-31T03:32:29;7.97;;;3.53;;
2011;SDS011;1009;51.436;6.972;2023-07-31T03:34:56;10.03;;;4.10;;
2011;SDS011;1009;51.436;6.972;2023-07-31T03:37:23;8.67;;;3.50;;
2011;SDS011;1009;51.436;6.972;2023-07-31T03:39:50;6.83;;;3.37;;
2011;SDS011;1009;51.436;6.972;2023-07-31T03:42:18;7.93;;;4.13;;
2011;SDS011;1009;51.436;6.972;2023-07-31T03:44:44;11.17;;;4.20;;
2011;SDS011;1009;51.436;6.972;2023-07-31T03:47:11;11.17;;;3.20;;
2011;SDS011;1009;51.436;6.972;2023-07-31T03:49:38;7.97;;;3.40;;
2011;SDS011;1009;51.436;6.972;2023-07-31T03:52:05;6.30;;;3.50;;
2011;SDS011;1009;51.436;6.972;2023-07-31T03:54:32;10.30;;;3.43;;
2011;SDS011;1009;51.436;6.972;2023-07-31T03:56:59;9.13;;;3.40;;
2011;SDS011;1009;51.436;6.972;2023-07-31T03:59:27;8.80;;;3.40;;
2011;SDS011;1009;51.436;6.972;2023-07-31T04:01:54;11.10;;;4.60;;
2011;SDS011;1009;51.436;6.972;2023-07-31T04:04:21;7.37;;;3.13;;
2011;SDS011;1009;51.436;6.972;2023-07-31T04:06:48;9.47;;;3.40;;
2011;SDS011;1009;51.436;6.972;2023-07-31T04:09:14;8.33;;;3.83;;
2011;SDS011;1009;51.436;6.972;2023-07-31T04:11:41;9.43;;;3.47;;
2011;SDS011;1009;51.436;6.972;2023-07-31T04:14:08;13.17;;;5.03;;
2011;SDS011;1009;51.436;6.972;2023-07-31T04:16:36;8.50;;;3.20;;
2011;SDS011;1009;51.436;6.972;2023-07-31T04:19:03;7.63;;;3.50;;
2011;SDS011;1009;51.436;6.972;2023-07-31T04:21:30;11.33;;;3.27;;
2011;SDS011;1009;51.436;6.972;2023-07-31T04:23:56;7.53;;;3.27;;
2011;SDS011;1009;51.436;6.972;2023-07-31T04:26:23;5.60;;;2.57;;
2011;SDS011;1009;51.436;6.972;2023-07-31T04:28:50;9.40;;;3.63;;
2011;SDS011;1009;51.436;6.972;2023-07-31T04:31:17;6.40;;;3.70;;
2011;SDS011;1009;51.436;6.972;2023-07-31T04:33:45;7.87;;;3.70;;
2011;SDS011;1009;51.436;6.972;2023-07-31T04:36:12;7.50;;;3.40;;
2011;SDS011;1009;51.436;6.972;2023-07-31T04:38:38;9.20;;;3.20;;
2011;SDS011;1009;51.436;6.972;2023-07-31T04:41:06;11.77;;;3.63;;
2011;SDS011;1009;51.436;6.972;2023-07-31T04:43:33;8.23;;;3.40;;
2011;SDS011;1009;51.436;6.972;2023-07-31T04:45:59;5.80;;;3.67;;
2011;SDS011;1009;51.436;6.972;2023-07-31T04:48:26;7.77;;;3.50;;
2011;SDS011;1009;51.436;6.972;2023-07-31T04:50:55;10.47;;;3.07;;
2011;SDS011;1009;51.436;6.972;2023-07-31T04:53:21;9.73;;;3.13;;
2011;SDS011;1009;51.436;6.972;2023-07-31T04:55:48;9.93;;;3.10;;
2011;SDS011;1009;51.436;6.972;2023-07-31T04:58:15;9.70;;;3.50;;
2011;SDS011;1009;51.436;6.972;2023-07-31T05:00:42;5.53;;;3.20;;
2011;SDS011;1009;51.436;6.972;2023-07-31T05:03:08;6.27;;;3.73;;
2011;SDS011;1009;51.436;6.972;2023-07-31T05:05:35;5.17;;;3.10;;
2011;SDS011;1009;51.436;6.972;2023-07-31T05:08:04;7.83;;;3.63;;
2011;SDS011;1009;51.436;6.972;2023-07-31T05:10:30;13.57;;;3.97;;
2011;SDS011;1009;51.436;6.972;2023-07-31T05:12:57;7.67;;;3.43;;
2011;SDS011;1009;51.436;6.972;2023-07-31T05:15:24;7.20;;;3.50;;
2011;SDS011;1009;51.436;6.972;2023-07-31T05:17:51;10.07;;;4.90;;
2011;SDS011;1009;51.436;6.972;2023-07-31T05:20:17;7.63;;;4.03;;
2011;SDS011;1009;51.436;6.972;2023-07-31T05:22:44;11.73;;;3.70;;
2011;SDS011;1009;51.436;6.972;2023-07-31T05:25:12;5.93;;;3.57;;
2011;SDS011;1009;51.436;6.972;2023-07-31T05:27:39;7.13;;;4.10;;
2011;SDS011;1009;51.436;6.972;2023-07-31T05:30:06;7.17;;;3.70;;
2011;SDS011;1009;51.436;6.972;2023-07-31T05:32:34;7.87;;;3.37;;
2011;SDS011;1009;51.436;6.972;2023-07-31T05:35:00;8.57;;;3.60;;
2011;SDS011;1009;51.436;6.972;2023-07-31T05:37:27;10.73;;;4.57;;
2011;SDS011;1009;51.436;6.972;2023-07-31T05:39:54;8.43;;;3.83;;
2011;SDS011;1009;51.436;6.972;2023-07-31T05:42:22;6.77;;;3.57;;
2011;SDS011;1009;51.436;6.972;2023-07-31T05:44:49;7.40;;;3.20;;
2011;SDS011;1009;51.436;6.972;2023-07-31T05:47:16;5.00;;;3.17;;
2011;SDS011;1009;51.436;6.972;2023-07-31T05:49:43;11.83;;;3.57;;
2011;SDS011;1009;51.436;6.972;2023-07-31T05:52:10;7.20;;;4.00;;
2011;SDS011;1009;51.436;6.972;2023-07-31T05:54:37;7.53;;;3.73;;
2011;SDS011;1009;51.436;6.972;2023-07-31T05:57:04;7.73;;;3.90;;
2011;SDS011;1009;51.436;6.972;2023-07-31T05:59:32;11.83;;;3.93;;
2011;SDS011;1009;51.436;6.972;2023-07-31T06:01:59;6.40;;;3.70;;
2011;SDS011;1009;51.436;6.972;2023-07-31T06:04:26;9.67;;;3.70;;
2011;SDS011;1009;51.436;6.972;2023-07-31T06:06:53;5.83;;;3.90;;
2011;SDS011;1009;51.436;6.972;2023-07-31T06:09:20;4.90;;;3.10;;
2011;SDS011;1009;51.436;6.972;2023-07-31T06:11:47;8.73;;;3.53;;
2011;SDS011;1009;51.436;6.972;2023-07-31T06:14:14;7.33;;;3.50;;
2011;SDS011;1009;51.436;6.972;2023-07-31T06:16:42;5.57;;;3.50;;
2011;SDS011;1009;51.436;6.972;2023-07-31T06:19:09;6.43;;;4.20;;
2011;SDS011;1009;51.436;6.972;2023-07-31T06:21:35;6.07;;;3.63;;
2011;SDS011;1009;51.436;6.972;2023-07-31T06:24:03;11.60;;;3.60;;
2011;SDS011;1009;51.436;6.972;2023-07-31T06:26:30;7.67;;;4.57;;
2011;SDS011;1009;51.436;6.972;2023-07-31T06:28:57;7.17;;;3.30;;
2011;SDS011;1009;51.436;6.972;2023-07-31T06:31:23;9.70;;;3.80;;
2011;SDS011;1009;51.436;6.972;2023-07-31T06:33:52;9.03;;;3.30;;
2011;SDS011;1009;51.436;6.972;2023-07-31T06:36:19;5.77;;;3.90;;
2011;SDS011;1009;51.436;6.972;2023-07-31T06:38:45;7.07;;;4.70;;
2011;SDS011;1009;51.436;6.972;2023-07-31T06:41:12;9.60;;;4.03;;
2011;SDS011;1009;51.436;6.972;2023-07-31T06:43:39;8.37;;;3.73;;
2011;SDS011;1009;51.436;6.972;2023-07-31T06:46:06;6.80;;;4.10;;
2011;SDS011;1009;51.436;6.972;2023-07-31T06:48:33;10.47;;;5.00;;
2011;SDS011;1009;51.436;6.972;2023-07-31T06:51:03;11.43;;;3.80;;
2011;SDS011;1009;51.436;6.972;2023-07-31T06:53:30;5.80;;;3.30;;
2011;SDS011;1009;51.436;6.972;2023-07-31T06:55:56;7.30;;;3.73;;
2011;SDS011;1009;51.436;6.972;2023-07-31T06:58:23;7.30;;;3.30;;
2011;SDS011;1009;51.436;6.972;2023-07-31T07:00:50;5.67;;;3.53;;
2011;SDS011;1009;51.436;6.972;2023-07-31T07:03:17;6.23;;;3.23;;
2011;SDS011;1009;51.436;6.972;2023-07-31T07:05:45;6.30;;;3.43;;
2011;SDS011;1009;51.436;6.972;2023-07-31T07:08:13;5.30;;;2.87;;
2011;SDS011;1009;51.436;6.972;2023-07-31T07:10:40;8.73;;;4.27;;
2011;SDS011;1009;51.436;6.972;2023-07-31T07:13:06;6.80;;;4.27;;
2011;SDS011;1009;51.436;6.972;2023-07-31T07:15:33;5.70;;;3.07;;
2011;SDS011;1009;51.436;6.972;2023-07-31T07:18:00;4.40;;;3.17;;
2011;SDS011;1009;51.436;6.972;2023-07-31T07:20:28;5.30;;;3.60;;
2011;SDS011;1009;51.436;6.972;2023-07-31T07:22:54;6.83;;;3.80;;
2011;SDS011;1009;51.436;6.972;2023-07-31T07:25:23;6.50;;;4.30;;
2011;SDS011;1009;51.436;6.972;2023-07-31T07:27:49;6.70;;;3.40;;
2011;SDS011;1009;51.436;6.972;2023-07-31T07:30:16;7.80;;;4.10;;
2011;SDS011;1009;51.436;6.972;2023-07-31T07:32:44;10.67;;;4.50;;
2011;SDS011;1009;51.436;6.972;2023-07-31T07:35:11;14.20;;;4.13;;
2011;SDS011;1009;51.436;6.972;2023-07-31T07:37:38;8.80;;;4.47;;
2011;SDS011;1009;51.436;6.972;2023-07-31T07:40:05;8.03;;;4.00;;
2011;SDS011;1009;51.436;6.972;2023-07-31T07:42:34;4.63;;;3.50;;
2011;SDS011;1009;51.436;6.972;2023-07-31T07:45:01;6.83;;;3.60;;
2011;SDS011;1009;51.436;6.972;2023-07-31T07:47:28;7.87;;;3.67;;
2011;SDS011;1009;51.436;6.972;2023-07-31T07:49:55;7.00;;;3.90;;
2011;SDS011;1009;51.436;6.972;2023-07-31T07:52:21;15.43;;;4.87;;
2011;SDS011;1009;51.436;6.972;2023-07-31T07:54:48;8.17;;;4.20;;
2011;SDS011;1009;51.436;6.972;2023-07-31T07:57:15;5.77;;;3.60;;
2011;SDS011;1009;51.436;6.972;2023-07-31T07:59:43;6.60;;;4.00;;
2011;SDS011;1009;51.436;6.972;2023-07-31T08:02:10;9.33;;;2.87;;
2011;SDS011;1009;51.436;6.972;2023-07-31T08:04:37;7.03;;;3.80;;
2011;SDS011;1009;51.436;6.972;2023-07-31T08:07:04;4.73;;;2.97;;
2011;SDS011;1009;51.436;6.972;2023-07-31T08:09:30;5.30;;;3.83;;
2011;SDS011;1009;51.436;6.972;2023-07-31T08:11:57;5.73;;;2.90;;
2011;SDS011;1009;51.436;6.972;2023-07-31T08:14:27;7.87;;;3.77;;
2011;SDS011;1009;51.436;6.972;2023-07-31T08:16:56;6.40;;;3.27;;
2011;SDS011;1009;51.436;6.972;2023-07-31T08:19:22;7.60;;;3.17;;
2011;SDS011;1009;51.436;6.972;2023-07-31T08:21:49;6.57;;;2.73;;
2011;SDS011;1009;51.436;6.972;2023-07-31T08:24:16;6.77;;;2.97;;
2011;SDS011;1009;51.436;6.972;2023-07-31T08:26:43;4.77;;;2.83;;
2011;SDS011;1009;51.436;6.972;2023-07-31T08:29:10;5.70;;;3.20;;
2011;SDS011;1009;51.436;6.972;2023-07-31T08:31:37;5.80;;;3.10;;
2011;SDS011;1009;51.436;6.972;2023-07-31T08:34:06;5.83;;;2.60;;
2011;SDS011;1009;51.436;6.972;2023-07-31T08:36:32;5.37;;;3.20;;
2011;SDS011;1009;51.436;6.972;2023-07-31T08:38:59;4.90;;;2.50;;
2011;SDS011;1009;51.436;6.972;2023-07-31T08:41:26;4.50;;;3.17;;
2011;SDS011;1009;51.436;6.972;2023-07-31T08:43:53;5.30;;;3.17;;
2011;SDS011;1009;51.436;6.972;2023-07-31T08:46:22;5.43;;;3.03;;
2011;SDS011;1009;51.436;6.972;2023-07-31T08:48:50;4.30;;;2.60;;
2011;SDS011;1009;51.436;6.972;2023-07-31T08:51:20;3.50;;;2.57;;
2011;SDS011;1009;51.436;6.972;2023-07-31T08:53:47;3.30;;;2.40;;
2011;SDS011;1009;51.436;6.972;2023-07-31T08:56:14;5.63;;;3.53;;
2011;SDS011;1009;51.436;6.972;2023-07-31T08:58:42;4.60;;;2.53;;
2011;SDS011;1009;51.436;6.972;2023-07-31T09:01:10;7.03;;;3.27;;
2011;SDS011;1009;51.436;6.972;2023-07-31T09:03:37;4.47;;;2.97;;
2011;SDS011;1009;51.436;6.972;2023-07-31T09:06:06;5.60;;;2.83;;
2011;SDS011;1009;51.436;6.972;2023-07-31T09:08:35;5.83;;;2.87;;
2011;SDS011;1009;51.436;6.972;2023-07-31T09:11:03;5.13;;;2.60;;
2011;SDS011;1009;51.436;6.972;2023-07-31T09:13:30;8.83;;;2.90;;
2011;SDS011;1009;51.436;6.972;2023-07-31T09:15:58;6.50;;;2.43;;
2011;SDS011;1009;51.436;6.972;2023-07-31T09:18:25;4.10;;;2.73;;
2011;SDS011;1009;51.436;6.972;2023-07-31T09:21:01;5.70;;;2.50;;
2011;SDS011;1009;51.436;6.972;2023-07-31T09:23:41;3.73;;;2.43;;
2011;SDS011;1009;51.436;6.972;2023-07-31T09:26:08;2.00;;;1.70;;
2011;SDS011;1009;51.436;6.972;2023-07-31T09:28:35;4.90;;;3.13;;
2011;SDS011;1009;51.436;6.972;2023-07-31T09:31:02;4.90;;;2.47;;
2011;SDS011;1009;51.436;6.972;2023-07-31T09:33:29;3.60;;;2.63;;
2011;SDS011;1009;51.436;6.972;2023-07-31T09:35:58;4.50;;;2.20;;
2011;SDS011;1009;51.436;6.972;2023-07-31T09:38:26;3.03;;;2.27;;
2011;SDS011;1009;51.436;6.972;2023-07-31T09:40:54;3.80;;;2.30;;
2011;SDS011;1009;51.436;6.972;2023-07-31T09:43:24;5.77;;;2.83;;
2011;SDS011;1009;51.436;6.972;2023-07-31T09:45:54;4.27;;;2.00;;
2011;SDS011;1009;51.436;6.972;2023-07-31T09:48:23;5.57;;;2.03;;
2011;SDS011;1009;51.436;6.972;2023-07-31T09:50:52;3.20;;;2.10;;
2011;SDS011;1009;51.436;6.972;2023-07-31T09:53:20;5.00;;;2.00;;
2011;SDS011;1009;51.436;6.972;2023-07-31T09:55:56;4.60;;;2.33;;
2011;SDS011;1009;51.436;6.972;2023-07-31T09:58:24;2.77;;;2.03;;
2011;SDS011;1009;51.436;6.972;2023-07-31T10:00:55;3.40;;;1.33;;
2011;SDS011;1009;51.436;6.972;2023-07-31T10:03:24;4.37;;;2.20;;
2011;SDS011;1009;51.436;6.972;2023-07-31T10:05:52;3.23;;;2.03;;
2011;SDS011;1009;51.436;6.972;2023-07-31T10:08:22;2.87;;;1.90;;
2011;SDS011;1009;51.436;6.972;2023-07-31T10:10:57;4.67;;;2.80;;
2011;SDS011;1009;51.436;6.972;2023-07-31T10:13:25;3.43;;;1.53;;
2011;SDS011;1009;51.436;6.972;2023-07-31T10:15:54;3.70;;;2.10;;
2011;SDS011;1009;51.436;6.972;2023-07-31T10:18:25;5.87;;;2.43;;
2011;SDS011;1009;51.436;6.972;2023-07-31T10:20:53;7.60;;;2.77;;
2011;SDS011;1009;51.436;6.972;2023-07-31T10:23:22;3.10;;;2.07;;
2011;SDS011;1009;51.436;6.972;2023-07-31T10:25:49;3.10;;;2.60;;
2011;SDS011;1009;51.436;6.972;2023-07-31T10:28:20;3.60;;;2.50;;
2011;SDS011;1009;51.436;6.972;2023-07-31T10:30:47;6.73;;;2.80;;
2011;SDS011;1009;51.436;6.972;2023-07-31T10:33:16;5.83;;;2.97;;
2011;SDS011;1009;51.436;6.972;2023-07-31T10:35:46;3.57;;;2.77;;
2011;SDS011;1009;51.436;6.972;2023-07-31T10:38:13;3.17;;;2.23;;
2011;SDS011;1009;51.436;6.972;2023-07-31T10:40:40;4.73;;;2.60;;
2011;SDS011;1009;51.436;6.972;2023-07-31T10:43:07;4.80;;;3.47;;
2011;SDS011;1009;51.436;6.972;2023-07-31T10:45:38;5.90;;;2.97;;
2011;SDS011;1009;51.436;6.972;2023-07-31T10:48:06;5.70;;;3.07;;
2011;SDS011;1009;51.436;6.972;2023-07-31T10:50:47;4.97;;;3.50;;
2011;SDS011;1009;51.436;6.972;2023-07-31T10:53:22;5.87;;;3.57;;
2011;SDS011;1009;51.436;6.972;2023-07-31T10:55:50;4.93;;;3.43;;
2011;SDS011;1009;51.436;6.972;2023-07-31T10:58:18;7.80;;;3.00;;
2011;SDS011;1009;51.436;6.972;2023-07-31T11:00:47;6.80;;;3.33;;
2011;SDS011;1009;51.436;6.972;2023-07-31T11:03:15;6.83;;;3.57;;
2011;SDS011;1009;51.436;6.972;2023-07-31T11:05:47;6.90;;;3.70;;
2011;SDS011;1009;51.436;6.972;2023-07-31T11:08:14;7.90;;;3.50;;
2011;SDS011;1009;51.436;6.972;2023-07-31T11:10:42;6.57;;;3.63;;
2011;SDS011;1009;51.436;6.972;2023-07-31T11:13:10;8.10;;;3.67;;
2011;SDS011;1009;51.436;6.972;2023-07-31T11:15:37;6.60;;;4.03;;
2011;SDS011;1009;51.436;6.972;2023-07-31T11:18:05;5.60;;;3.83;;
2011;SDS011;1009;51.436;6.972;2023-07-31T11:20:33;8.60;;;3.63;;
2011;SDS011;1009;51.436;6.972;2023-07-31T11:23:01;5.13;;;3.40;;
2011;SDS011;1009;51.436;6.972;2023-07-31T11:25:29;6.00;;;3.40;;
2011;SDS011;1009;51.436;6.972;2023-07-31T11:27:57;5.30;;;3.03;;
2011;SDS011;1009;51.436;6.972;2023-07-31T11:30:24;5.30;;;3.40;;
2011;SDS011;1009;51.436;6.972;2023-07-31T11:32:50;7.50;;;3.50;;
2011;SDS011;1009;51.436;6.972;2023-07-31T11:35:19;4.03;;;3.03;;
2011;SDS011;1009;51.436;6.972;2023-07-31T11:37:45;5.70;;;3.40;;
2011;SDS011;1009;51.436;6.972;2023-07-31T11:40:13;4.53;;;3.70;;
2011;SDS011;1009;51.436;6.972;2023-07-31T11:42:41;6.47;;;3.40;;
2011;SDS011;1009;51.436;6.972;2023-07-31T11:45:08;4.47;;;3.23;;
2011;SDS011;1009;51.436;6.972;2023-07-31T11:47:35;4.60;;;3.40;;
2011;SDS011;1009;51.436;6.972;2023-07-31T11:50:04;5.43;;;3.43;;
2011;SDS011;1009;51.436;6.972;2023-07-31T11:52:34;7.27;;;2.93;;
2011;SDS011;1009;51.436;6.972;2023-07-31T11:55:04;7.23;;;3.03;;
2011;SDS011;1009;51.436;6.972;2023-07-31T11:57:34;6.80;;;2.80;;
2011;SDS011;1009;51.436;6.972;2023-07-31T12:00:03;6.43;;;2.67;;
2011;SDS011;1009;51.436;6.972;2023-07-31T12:02:30;3.93;;;2.80;;
2011;SDS011;1009;51.436;6.972;2023-07-31T12:04:58;5.57;;;2.70;;
2011;SDS011;1009;51.436;6.972;2023-07-31T12:07:25;6.33;;;2.97;;
2011;SDS011;1009;51.436;6.972;2023-07-31T12:09:53;4.83;;;2.77;;
2011;SDS011;1009;51.436;6.972;2023-07-31T12:12:21;5.60;;;2.90;;
2011;SDS011;1009;51.436;6.972;2023-07-31T12:14:49;4.50;;;2.10;;
2011;SDS011;1009;51.436;6.972;2023-07-31T12:17:17;5.63;;;3.07;;
2011;SDS011;1009;51.436;6.972;2023-07-31T12:19:45;4.70;;;2.60;;
2011;SDS011;1009;51.436;6.972;2023-07-31T12:22:14;3.43;;;2.10;;
2011;SDS011;1009;51.436;6.972;2023-07-31T12:24:42;3.50;;;2.20;;
2011;SDS011;1009;51.436;6.972;2023-07-31T12:27:12;3.33;;;2.60;;
2011;SDS011;1009;51.436;6.972;2023-07-31T12:29:41;5.80;;;2.90;;
2011;SDS011;1009;51.436;6.972;2023-07-31T12:32:19;2.90;;;2.30;;
2011;SDS011;1009;51.436;6.972;2023-07-31T12:34:47;6.33;;;2.73;;
2011;SDS011;1009;51.436;6.972;2023-07-31T12:37:13;5.17;;;2.10;;
2011;SDS011;1009;51.436;6.972;2023-07-31T12:39:41;2.67;;;2.43;;
2011;SDS011;1009;51.436;6.972;2023-07-31T12:42:07;3.90;;;2.30;;
2011;SDS011;1009;51.436;6.972;2023-07-31T12:44:35;4.40;;;2.50;;
2011;SDS011;1009;51.436;6.972;2023-07-31T12:47:02;3.37;;;1.80;;
2011;SDS011;1009;51.436;6.972;2023-07-31T12:49:29;2.70;;;2.20;;
2011;SDS011;1009;51.436;6.972;2023-07-31T12:51:56;4.13;;;2.30;;
2011;SDS011;1009;51.436;6.972;2023-07-31T12:54:23;4.47;;;2.30;;
2011;SDS011;1009;51.436;6.972;2023-07-31T12:56:50;4.03;;;2.60;;
2011;SDS011;1009;51.436;6.972;2023-07-31T12:59:16;2.87;;;2.60;;
2011;SDS011;1009;51.436;6.972;2023-07-31T13:01:45;3.73;;;2.67;;
2011;SDS011;1009;51.436;6.972;2023-07-31T13:04:11;2.80;;;2.10;;
2011;SDS011;1009;51.436;6.972;2023-07-31T13:06:38;4.00;;;2.07;;
2011;SDS011;1009;51.436;6.972;2023-07-31T13:09:06;4.47;;;2.00;;
2011;SDS011;1009;51.436;6.972;2023-07-31T13:11:34;3.77;;;2.10;;
2011;SDS011;1009;51.436;6.972;2023-07-31T13:14:01;3.60;;;2.30;;
2011;SDS011;1009;51.436;6.972;2023-07-31T13:16:27;2.50;;;1.90;;
2011;SDS011;1009;51.436;6.972;2023-07-31T13:18:56;4.33;;;2.27;;
2011;SDS011;1009;51.436;6.972;2023-07-31T13:21:22;2.50;;;2.30;;
2011;SDS011;1009;51.436;6.972;2023-07-31T13:23:49;2.90;;;2.60;;
2011;SDS011;1009;51.436;6.972;2023-07-31T13:26:16;5.80;;;2.90;;
2011;SDS011;1009;51.436;6.972;2023-07-31T13:28:43;2.87;;;2.57;;
2011;SDS011;1009;51.436;6.972;2023-07-31T13:31:10;4.10;;;2.63;;
2011;SDS011;1009;51.436;6.972;2023-07-31T13:33:37;3.17;;;2.63;;
2011;SDS011;1009;51.436;6.972;2023-07-31T13:36:05;7.07;;;3.07;;
2011;SDS011;1009;51.436;6.972;2023-07-31T13:38:32;4.43;;;3.40;;
2011;SDS011;1009;51.436;6.972;2023-07-31T13:40:59;3.57;;;2.80;;
2011;SDS011;1009;51.436;6.972;2023-07-31T13:43:25;3.53;;;2.70;;
2011;SDS011;1009;51.436;6.972;2023-07-31T13:45:52;5.20;;;3.57;;
2011;SDS011;1009;51.436;6.972;2023-07-31T13:48:19;6.50;;;3.50;;
2011;SDS011;1009;51.436;6.972;2023-07-31T13:50:46;5.40;;;3.60;;
2011;SDS011;1009;51.436;6.972;2023-07-31T13:53:14;3.63;;;2.63;;
2011;SDS011;1009;51.436;6.972;2023-07-31T13:55:41;5.23;;;3.00;;
2011;SDS011;1009;51.436;6.972;2023-07-31T13:58:10;3.50;;;2.50;;
2011;SDS011;1009;51.436;6.972;2023-07-31T14:00:37;3.83;;;3.27;;
2011;SDS011;1009;51.436;6.972;2023-07-31T14:03:03;7.33;;;3.77;;
2011;SDS011;1009;51.436;6.972;2023-07-31T14:05:30;7.00;;;3.50;;
2011;SDS011;1009;51.436;6.972;2023-07-31T14:07:57;3.20;;;2.70;;
2011;SDS011;1009;51.436;6.972;2023-07-31T14:10:25;3.93;;;3.33;;
2011;SDS011;1009;51.436;6.972;2023-07-31T14:12:52;4.57;;;2.80;;
2011;SDS011;1009;51.436;6.972;2023-07-31T14:15:19;6.00;;;3.47;;
2011;SDS011;1009;51.436;6.972;2023-07-31T14:17:46;4.40;;;2.77;;
2011;SDS011;1009;51.436;6.972;2023-07-31T14:20:12;5.30;;;3.30;;
2011;SDS011;1009;51.436;6.972;2023-07-31T14:22:39;6.30;;;4.80;;
2011;SDS011;1009;51.436;6.972;2023-07-31T14:25:06;6.30;;;3.13;;
2011;SDS011;1009;51.436;6.972;2023-07-31T14:27:36;6.73;;;3.10;;
2011;SDS011;1009;51.436;6.972;2023-07-31T14:30:04;5.10;;;3.33;;
2011;SDS011;1009;51.436;6.972;2023-07-31T14:32:31;4.03;;;2.53;;
2011;SDS011;1009;51.436;6.972;2023-07-31T14:34:58;5.20;;;3.33;;
2011;SDS011;1009;51.436;6.972;2023-07-31T14:37:25;7.97;;;3.53;;
2011;SDS011;1009;51.436;6.972;2023-07-31T14:39:53;3.50;;;2.53;;
2011;SDS011;1009;51.436;6.972;2023-07-31T14:42:21;5.70;;;3.00;;
2011;SDS011;1009;51.436;6.972;2023-07-31T14:44:49;4.97;;;2.80;;
2011;SDS011;1009;51.436;6.972;2023-07-31T14:47:15;4.07;;;3.13;;
2011;SDS011;1009;51.436;6.972;2023-07-31T14:49:42;4.30;;;3.20;;
2011;SDS011;1009;51.436;6.972;2023-07-31T14:52:12;5.43;;;3.00;;
2011;SDS011;1009;51.436;6.972;2023-07-31T14:54:39;6.03;;;3.70;;
2011;SDS011;1009;51.436;6.972;2023-07-31T14:57:06;5.30;;;3.30;;
2011;SDS011;1009;51.436;6.972;2023-07-31T14:59:33;6.87;;;3.27;;
2011;SDS011;1009;51.436;6.972;2023-07-31T15:02:01;5.00;;;3.03;;
2011;SDS011;1009;51.436;6.972;2023-07-31T15:04:28;4.60;;;3.20;;
2011;SDS011;1009;51.436;6.972;2023-07-31T15:06:55;5.53;;;3.13;;
2011;SDS011;1009;51.436;6.972;2023-07-31T15:09:22;5.33;;;3.07;;
2011;SDS011;1009;51.436;6.972;2023-07-31T15:11:49;7.50;;;3.73;;
2011;SDS011;1009;51.436;6.972;2023-07-31T15:14:16;4.93;;;3.53;;